createdAt,value
2018-02-20T00:00:31.520Z,100961.61
2018-02-20T00:02:59.909Z,100959.32
2018-02-20T00:05:28.327Z,100954.91
2018-02-20T00:07:56.726Z,100958.09
2018-02-20T00:10:25.135Z,100951.94
2018-02-20T00:12:53.530Z,100961.06
2018-02-20T00:15:22.662Z,100957.88
2018-02-20T00:17:51.049Z,100957.97
2018-02-20T00:20:19.419Z,100957.83
2018-02-20T00:22:47.814Z,100956.20
2018-02-20T00:25:16.234Z,100957.09
2018-02-20T00:27:44.602Z,100950.52
2018-02-20T00:30:13.004Z,100956.00
2018-02-20T00:32:42.271Z,100956.52
2018-02-20T00:35:10.721Z,100951.25
2018-02-20T00:37:39.133Z,100953.92
2018-02-20T00:40:07.580Z,100948.48
2018-02-20T00:42:35.975Z,100951.87
2018-02-20T00:45:04.430Z,100951.62
2018-02-20T00:47:32.804Z,100954.06
2018-02-20T00:50:01.258Z,100954.45
2018-02-20T00:52:30.613Z,100954.47
2018-02-20T00:54:58.979Z,100967.67
2018-02-20T00:57:27.369Z,100964.80
2018-02-20T00:59:55.839Z,100959.05
2018-02-20T01:02:24.216Z,100955.91
2018-02-20T01:04:52.598Z,100957.91
2018-02-20T01:07:20.981Z,100963.72
2018-02-20T01:09:49.367Z,100958.23
2018-02-20T01:12:17.786Z,100954.31
2018-02-20T01:14:46.174Z,100957.91
2018-02-20T01:17:15.310Z,100955.29
2018-02-20T01:19:43.761Z,100954.96
2018-02-20T01:22:12.903Z,100957.09
2018-02-20T01:24:41.319Z,100960.17
2018-02-20T01:27:10.618Z,100955.94
2018-02-20T01:29:39.869Z,100963.89
2018-02-20T01:32:08.249Z,100963.69
2018-02-20T01:34:36.623Z,100968.55
2018-02-20T01:37:04.996Z,100964.88
2018-02-20T01:39:33.382Z,100968.29
2018-02-20T01:42:01.780Z,100967.96
2018-02-20T01:44:30.222Z,100970.03
2018-02-20T01:46:58.589Z,100965.94
2018-02-20T01:49:26.972Z,100966.35
2018-02-20T01:51:55.351Z,100963.67
2018-02-20T01:54:23.808Z,100969.78
2018-02-20T01:56:52.959Z,100965.52
2018-02-20T01:59:21.336Z,100963.44
2018-02-20T02:01:49.786Z,100959.20
2018-02-20T02:04:18.187Z,100959.11
2018-02-20T02:06:46.586Z,100959.77
2018-02-20T02:09:14.970Z,100955.62
2018-02-20T02:11:43.414Z,100951.34
2018-02-20T02:14:11.793Z,100950.28
2018-02-20T02:16:40.202Z,100955.67
2018-02-20T02:19:08.597Z,100943.74
2018-02-20T02:21:36.991Z,100945.56
2018-02-20T02:24:06.160Z,100941.89
2018-02-20T02:26:34.544Z,100942.80
2018-02-20T02:29:02.923Z,100941.80
2018-02-20T02:31:31.397Z,100937.88
2018-02-20T02:33:59.792Z,100930.20
2018-02-20T02:36:28.225Z,100931.11
2018-02-20T02:38:56.592Z,100935.86
2018-02-20T02:41:24.986Z,100934.05
2018-02-20T02:43:53.408Z,100929.52
2018-02-20T02:46:21.792Z,100930.25
2018-02-20T02:48:50.949Z,100933.09
2018-02-20T02:51:19.342Z,100935.36
2018-02-20T02:53:47.740Z,100931.81
2018-02-20T02:56:16.189Z,100934.45
2018-02-20T02:58:44.662Z,100935.66
2018-02-20T03:01:13.135Z,100937.41
2018-02-20T03:03:41.510Z,100930.89
2018-02-20T03:06:09.898Z,100932.42
2018-02-20T03:08:38.287Z,100934.75
2018-02-20T03:11:06.680Z,100932.55
2018-02-20T03:13:35.100Z,100925.61
2018-02-20T03:16:04.248Z,100934.37
2018-02-20T03:18:32.666Z,100933.36
2018-02-20T03:21:01.810Z,100941.08
2018-02-20T03:23:30.275Z,100940.34
2018-02-20T03:25:58.665Z,100934.50
2018-02-20T03:28:27.041Z,100934.50
2018-02-20T03:30:55.445Z,100945.99
2018-02-20T03:33:23.865Z,100944.45
2018-02-20T03:35:53.025Z,100937.58
2018-02-20T03:38:21.448Z,100936.47
2018-02-20T03:40:49.851Z,100937.28
2018-02-20T03:43:18.212Z,100939.31
2018-02-20T03:45:46.615Z,100938.18
2018-02-20T03:48:15.015Z,100943.30
2018-02-20T03:50:43.419Z,100944.38
2018-02-20T03:53:12.657Z,100940.31
2018-02-20T03:55:41.101Z,100942.30
2018-02-20T03:58:09.483Z,100949.16
2018-02-20T04:00:38.633Z,100949.66
2018-02-20T04:03:07.104Z,100953.23
2018-02-20T04:05:35.563Z,100951.33
2018-02-20T04:08:03.941Z,100955.80
2018-02-20T04:10:32.338Z,100952.44
2018-02-20T04:13:00.748Z,100950.72
2018-02-20T04:15:29.146Z,100952.22
2018-02-20T04:17:57.582Z,100953.14
2018-02-20T04:20:25.990Z,100955.72
2018-02-20T04:22:54.392Z,100955.02
2018-02-20T04:25:23.544Z,100957.87
2018-02-20T04:27:51.939Z,100961.63
2018-02-20T04:30:21.133Z,100956.30
2018-02-20T04:32:49.524Z,100956.19
2018-02-20T04:35:17.913Z,100955.92
2018-02-20T04:37:46.308Z,100959.37
2018-02-20T04:40:14.734Z,100957.03
2018-02-20T04:42:43.135Z,100957.41
2018-02-20T04:45:11.548Z,100957.22
2018-02-20T04:47:40.770Z,100950.36
2018-02-20T04:50:09.144Z,100954.60
2018-02-20T04:52:37.525Z,100955.50
2018-02-20T04:55:05.924Z,100956.43
2018-02-20T04:57:34.322Z,100955.15
2018-02-20T05:00:02.704Z,100958.68
2018-02-20T05:02:31.102Z,100955.87
2018-02-20T05:05:00.240Z,100944.91
2018-02-20T05:07:28.638Z,100947.66
2018-02-20T05:09:57.009Z,100947.80
2018-02-20T05:12:25.420Z,100954.44
2018-02-20T05:14:53.803Z,100952.89
2018-02-20T05:17:22.250Z,100945.86
2018-02-20T05:19:50.724Z,100949.53
2018-02-20T05:22:19.108Z,100944.97
2018-02-20T05:24:48.342Z,100947.47
2018-02-20T05:27:16.759Z,100957.13
2018-02-20T05:29:45.150Z,100954.11
2018-02-20T05:32:13.524Z,100957.83
2018-02-20T05:34:41.987Z,100959.98
2018-02-20T05:37:10.428Z,100967.45
2018-02-20T05:39:38.826Z,100961.94
2018-02-20T05:42:07.972Z,100966.47
2018-02-20T05:44:36.442Z,100952.58
2018-02-20T05:47:04.820Z,100965.98
2018-02-20T05:49:33.416Z,100966.20
2018-02-20T05:52:01.790Z,100972.16
2018-02-20T05:54:30.206Z,100972.23
2018-02-20T05:56:58.640Z,100963.33
2018-02-20T05:59:27.009Z,100976.56
2018-02-20T06:01:55.400Z,100975.23
2018-02-20T06:04:23.781Z,100975.94
2018-02-20T06:06:52.191Z,100975.38
2018-02-20T06:09:20.594Z,100981.59
2018-02-20T06:11:48.966Z,100977.44
2018-02-20T06:14:17.403Z,100982.30
2018-02-20T06:16:45.778Z,100982.94
2018-02-20T06:19:14.145Z,100982.52
2018-02-20T06:21:42.569Z,100981.41
2018-02-20T06:24:10.974Z,100984.64
2018-02-20T06:26:40.112Z,100988.70
2018-02-20T06:29:08.518Z,100991.72
2018-02-20T06:31:36.923Z,100998.25
2018-02-20T06:34:05.311Z,100996.11
2018-02-20T06:36:34.468Z,100995.58
2018-02-20T06:39:02.874Z,100991.83
2018-02-20T06:41:31.254Z,100995.42
2018-02-20T06:44:00.401Z,100995.65
2018-02-20T06:46:28.781Z,100996.61
2018-02-20T06:48:57.154Z,100995.20
2018-02-20T06:51:25.591Z,100999.32
2018-02-20T06:53:54.796Z,101002.73
2018-02-20T06:56:23.137Z,100997.75
2018-02-20T06:58:51.564Z,100997.27
2018-02-20T07:01:19.946Z,100999.38
2018-02-20T07:03:48.334Z,100998.38
2018-02-20T07:06:16.742Z,100998.39
2018-02-20T07:08:45.106Z,100996.09
2018-02-20T07:11:13.506Z,101000.84
2018-02-20T07:13:41.906Z,101000.75
2018-02-20T07:16:10.317Z,101000.63
2018-02-20T07:18:38.708Z,101006.14
2018-02-20T07:21:07.155Z,101002.02
2018-02-20T07:23:36.299Z,101003.05
2018-02-20T07:26:04.671Z,101000.55
2018-02-20T07:28:33.055Z,100997.86
2018-02-20T07:31:01.537Z,100999.86
2018-02-20T07:33:29.905Z,101009.11
2018-02-20T07:35:58.313Z,101002.08
2018-02-20T07:38:27.501Z,101013.13
2018-02-20T07:40:55.854Z,101020.11
2018-02-20T07:43:24.237Z,101018.76
2018-02-20T07:45:52.597Z,101017.88
2018-02-20T07:48:20.992Z,101016.55
2018-02-20T07:50:49.396Z,101015.45
2018-02-20T07:53:17.784Z,101017.83
2018-02-20T07:55:46.152Z,101016.21
2018-02-20T07:58:14.584Z,101017.55
2018-02-20T08:00:43.736Z,101010.68
2018-02-20T08:03:12.238Z,101012.17
2018-02-20T08:05:40.610Z,101009.50
2018-02-20T08:08:09.014Z,101012.90
2018-02-20T08:10:38.177Z,101004.61
2018-02-20T08:13:06.539Z,101009.17
2018-02-20T08:15:34.925Z,101006.08
2018-02-20T08:18:03.289Z,101009.23
2018-02-20T08:20:31.655Z,101013.95
2018-02-20T08:23:00.071Z,101013.98
2018-02-20T08:25:28.559Z,101013.48
2018-02-20T08:27:56.937Z,101009.58
2018-02-20T08:30:25.311Z,101017.56
2018-02-20T08:32:53.701Z,101021.16
2018-02-20T08:35:22.069Z,101020.02
2018-02-20T08:37:50.457Z,101025.77
2018-02-20T08:40:22.577Z,101025.95
2018-02-20T08:42:50.979Z,101025.22
2018-02-20T08:45:19.353Z,101024.53
2018-02-20T08:47:47.758Z,101023.88
2018-02-20T08:50:16.131Z,101023.15
2018-02-20T08:52:44.510Z,101022.59
2018-02-20T08:55:12.900Z,101023.52
2018-02-20T08:57:42.031Z,101021.58
2018-02-20T09:00:10.417Z,101020.38
2018-02-20T09:02:38.816Z,101015.30
2018-02-20T09:05:07.201Z,101017.23
2018-02-20T09:07:35.577Z,101015.91
2018-02-20T09:10:04.044Z,101013.70
2018-02-20T09:12:32.417Z,101019.06
2018-02-20T09:15:00.802Z,101023.48
2018-02-20T09:17:29.173Z,101021.73
2018-02-20T09:19:57.575Z,101021.89
2018-02-20T09:22:25.964Z,101017.00
2018-02-20T09:24:54.382Z,101017.16
2018-02-20T09:27:22.764Z,101023.63
2018-02-20T09:29:51.133Z,101019.66
2018-02-20T09:32:20.300Z,101028.31
2018-02-20T09:34:48.696Z,101032.18
2018-02-20T09:37:17.069Z,101033.59
2018-02-20T09:39:45.468Z,101033.22
2018-02-20T09:42:13.842Z,101028.22
2018-02-20T09:44:42.274Z,101027.61
2018-02-20T09:47:10.642Z,101035.78
2018-02-20T09:49:39.048Z,101033.19
2018-02-20T09:52:07.413Z,101036.06
2018-02-20T09:54:35.811Z,101033.92
2018-02-20T09:57:04.197Z,101032.76
2018-02-20T09:59:32.562Z,101042.25
2018-02-20T10:02:01.747Z,101036.94
2018-02-20T10:04:30.118Z,101030.22
2018-02-20T10:06:58.513Z,101035.94
2018-02-20T10:09:26.885Z,101032.59
2018-02-20T10:11:55.270Z,101027.34
2018-02-20T10:14:23.679Z,101034.53
2018-02-20T10:16:52.818Z,101032.86
2018-02-20T10:19:21.192Z,101027.55
2018-02-20T10:21:49.609Z,101028.03
2018-02-20T10:24:17.985Z,101027.88
2018-02-20T10:26:46.377Z,101026.16
2018-02-20T10:29:14.766Z,101031.41
2018-02-20T10:31:43.909Z,101023.47
2018-02-20T10:34:12.305Z,101027.04
2018-02-20T10:36:40.718Z,101025.30
2018-02-20T10:39:09.906Z,101024.77
2018-02-20T10:41:38.290Z,101025.34
2018-02-20T10:44:06.673Z,101022.20
2018-02-20T10:46:35.857Z,101019.22
2018-02-20T10:49:04.240Z,101022.61
2018-02-20T10:51:32.638Z,101019.11
2018-02-20T10:54:01.037Z,101025.61
2018-02-20T10:56:29.433Z,101023.00
2018-02-20T10:58:57.836Z,101022.17
2018-02-20T11:01:26.217Z,101023.58
2018-02-20T11:03:54.590Z,101023.13
2018-02-20T11:06:22.987Z,101019.80
2018-02-20T11:08:51.360Z,101014.41
2018-02-20T11:11:19.776Z,101018.42
2018-02-20T11:13:48.169Z,101013.63
2018-02-20T11:16:16.529Z,101011.75
2018-02-20T11:18:44.930Z,101013.02
2018-02-20T11:21:13.317Z,101013.94
2018-02-20T11:23:41.690Z,101006.86
2018-02-20T11:26:10.082Z,101014.94
2018-02-20T11:28:38.471Z,101010.63
2018-02-20T11:31:06.873Z,101005.49
2018-02-20T11:33:35.248Z,101001.42
2018-02-20T11:36:03.649Z,101004.67
2018-02-20T11:38:32.021Z,101005.96
2018-02-20T11:41:01.204Z,100998.25
2018-02-20T11:43:29.569Z,101001.88
2018-02-20T11:45:57.980Z,101007.71
2018-02-20T11:48:26.409Z,101009.78
2018-02-20T11:50:55.550Z,101005.22
2018-02-20T11:53:24.678Z,101007.86
2018-02-20T11:55:53.087Z,101012.12
2018-02-20T11:58:21.487Z,101017.31
2018-02-20T12:00:49.876Z,101018.88
2018-02-20T12:03:19.025Z,101009.39
2018-02-20T12:05:47.408Z,101015.31
2018-02-20T12:08:15.782Z,101017.83
2018-02-20T12:10:44.199Z,101016.48
2018-02-20T12:13:12.629Z,101010.27
2018-02-20T12:15:41.011Z,101013.45
2018-02-20T12:18:09.438Z,101014.19
2018-02-20T12:20:37.813Z,101008.41
2018-02-20T12:23:06.191Z,101010.03
2018-02-20T12:25:34.601Z,101011.85
2018-02-20T12:28:02.974Z,101012.48
2018-02-20T12:30:31.381Z,101011.47
2018-02-20T12:32:59.824Z,101009.50
2018-02-20T12:35:28.246Z,101005.97
2018-02-20T12:37:56.722Z,101007.98
2018-02-20T12:40:25.128Z,101012.09
2018-02-20T12:42:53.519Z,101011.58
2018-02-20T12:45:21.903Z,101013.20
2018-02-20T12:47:50.345Z,101011.27
2018-02-20T12:50:18.773Z,101015.39
2018-02-20T12:52:47.150Z,101015.04
2018-02-20T12:55:15.538Z,101020.85
2018-02-20T12:57:44.703Z,101021.73
2018-02-20T13:00:13.138Z,101021.91
2018-02-20T13:02:41.713Z,101025.47
2018-02-20T13:05:10.122Z,101019.99
2018-02-20T13:07:39.311Z,101027.20
2018-02-20T13:10:07.766Z,101016.87
2018-02-20T13:12:36.187Z,101014.17
2018-02-20T13:15:04.558Z,101021.20
2018-02-20T13:17:33.051Z,101018.84
2018-02-20T13:20:01.430Z,101020.55
2018-02-20T13:22:29.859Z,101020.15
2018-02-20T13:24:58.289Z,101015.99
2018-02-20T13:27:26.749Z,101011.06
2018-02-20T13:29:55.225Z,101017.08
2018-02-20T13:32:23.605Z,101017.55
2018-02-20T13:34:52.033Z,101016.73
2018-02-20T13:37:20.402Z,101021.92
2018-02-20T13:39:48.793Z,101022.87
2018-02-20T13:42:17.360Z,101027.78
2018-02-20T13:44:45.838Z,101029.22
2018-02-20T13:47:14.227Z,101024.48
2018-02-20T13:49:42.754Z,101029.61
2018-02-20T13:52:12.257Z,101027.38
2018-02-20T13:54:40.670Z,101025.12
2018-02-20T13:57:09.075Z,101027.19
2018-02-20T13:59:37.453Z,101029.98
2018-02-20T14:02:05.883Z,101031.42
2018-02-20T14:04:34.283Z,101032.20
2018-02-20T14:07:02.689Z,101030.33
2018-02-20T14:09:31.103Z,101041.30
2018-02-20T14:12:00.236Z,101033.83
2018-02-20T14:14:28.642Z,101031.66
2018-02-20T14:16:57.033Z,101030.13
2018-02-20T14:19:25.661Z,101033.74
2018-02-20T14:21:54.038Z,101033.04
2018-02-20T14:24:22.435Z,101033.64
2018-02-20T14:26:50.998Z,101032.08
2018-02-20T14:29:19.425Z,101035.91
2018-02-20T14:31:47.795Z,101033.43
2018-02-20T14:34:16.210Z,101030.61
2018-02-20T14:36:45.486Z,101028.37
2018-02-20T14:39:13.907Z,101030.52
2018-02-20T14:41:42.313Z,101035.47
2018-02-20T14:44:10.690Z,101041.81
2018-02-20T14:46:39.279Z,101036.50
2018-02-20T14:49:07.809Z,101032.73
2018-02-20T14:51:36.342Z,101030.82
2018-02-20T14:54:04.802Z,101033.45
2018-02-20T14:56:33.211Z,101035.73
2018-02-20T14:59:01.598Z,101039.03
2018-02-20T15:01:30.192Z,101042.02
2018-02-20T15:03:58.598Z,101047.06
2018-02-20T15:06:26.998Z,101047.05
2018-02-20T15:08:55.426Z,101047.47
2018-02-20T15:11:23.802Z,101056.51
2018-02-20T15:13:52.665Z,101056.91
2018-02-20T15:16:21.135Z,101055.88
2018-02-20T15:18:49.525Z,101062.42
2018-02-20T15:21:17.912Z,101060.33
2018-02-20T15:23:46.312Z,101061.37
2018-02-20T15:26:14.692Z,101064.54
2018-02-20T15:28:43.074Z,101065.34
2018-02-20T15:31:11.471Z,101071.26
2018-02-20T15:33:39.918Z,101073.47
2018-02-20T15:36:08.315Z,101077.74
2018-02-20T15:38:36.691Z,101079.69
2018-02-20T15:41:05.097Z,101083.45
2018-02-20T15:43:33.569Z,101084.86
2018-02-20T15:46:02.768Z,101089.47
2018-02-20T15:48:31.158Z,101092.27
2018-02-20T15:50:59.551Z,101091.02
2018-02-20T15:53:27.965Z,101095.63
2018-02-20T15:55:56.345Z,101099.64
2018-02-20T15:58:24.746Z,101096.50
2018-02-20T16:00:53.908Z,101109.23
2018-02-20T16:03:22.301Z,101104.13
2018-02-20T16:05:50.730Z,101114.20
2018-02-20T16:08:19.103Z,101116.17
2018-02-20T16:10:47.542Z,101120.12
2018-02-20T16:13:16.040Z,101117.84
2018-02-20T16:15:49.332Z,101125.33
2018-02-20T16:18:18.534Z,101131.03
2018-02-20T16:20:47.680Z,101128.53
2018-02-20T16:23:16.087Z,101138.02
2018-02-20T16:25:44.472Z,101131.70
2018-02-20T16:28:12.852Z,101137.83
2018-02-20T16:30:41.233Z,101133.06
2018-02-20T16:33:09.668Z,101129.31
2018-02-20T16:35:38.057Z,101127.22
2018-02-20T16:38:06.422Z,101135.34
2018-02-20T16:40:34.814Z,101135.42
2018-02-20T16:43:03.194Z,101132.06
2018-02-20T16:45:31.634Z,101138.84
2018-02-20T16:48:00.027Z,101142.47
2018-02-20T16:50:28.453Z,101149.25
2018-02-20T16:52:56.836Z,101150.22
2018-02-20T16:55:25.243Z,101146.95
2018-02-20T16:57:54.414Z,101148.27
2018-02-20T17:00:22.785Z,101149.11
2018-02-20T17:02:51.375Z,101150.62
2018-02-20T17:05:19.790Z,101153.78
2018-02-20T17:07:48.157Z,101157.95
2018-02-20T17:10:17.383Z,101156.19
2018-02-20T17:12:45.759Z,101156.84
2018-02-20T17:15:14.148Z,101156.57
2018-02-20T17:17:42.544Z,101165.42
2018-02-20T17:20:10.958Z,101165.66
2018-02-20T17:22:39.330Z,101174.70
2018-02-20T17:25:07.750Z,101176.63
2018-02-20T17:27:36.180Z,101177.61
2018-02-20T17:30:04.586Z,101182.05
2018-02-20T17:32:33.767Z,101182.55
2018-02-20T17:35:02.136Z,101178.40
2018-02-20T17:37:30.540Z,101182.69
2018-02-20T17:39:59.713Z,101189.80
2018-02-20T17:42:28.109Z,101191.82
2018-02-20T17:44:57.266Z,101189.92
2018-02-20T17:47:26.410Z,101192.38
2018-02-20T17:49:55.630Z,101195.91
2018-02-20T17:52:24.019Z,101193.33
2018-02-20T17:54:52.458Z,101199.28
2018-02-20T17:57:21.606Z,101194.42
2018-02-20T17:59:49.998Z,101201.06
2018-02-20T18:02:18.409Z,101197.88
2018-02-20T18:04:47.585Z,101212.28
2018-02-20T18:07:15.987Z,101207.40
2018-02-20T18:09:44.380Z,101214.19
2018-02-20T18:12:12.779Z,101212.25
2018-02-20T18:14:41.187Z,101220.97
2018-02-20T18:17:09.565Z,101220.61
2018-02-20T18:19:37.949Z,101231.05
2018-02-20T18:22:06.334Z,101234.70
2018-02-20T18:24:34.777Z,101232.63
2018-02-20T18:27:03.221Z,101232.27
2018-02-20T18:29:32.406Z,101236.45
2018-02-20T18:32:00.868Z,101231.98
2018-02-20T18:34:29.330Z,101236.22
2018-02-20T18:36:57.872Z,101242.63
2018-02-20T18:39:27.067Z,101247.23
2018-02-20T18:41:56.253Z,101250.68
2018-02-20T18:44:24.701Z,101252.97
2018-02-20T18:46:53.124Z,101253.20
2018-02-20T18:49:22.299Z,101254.13
2018-02-20T18:51:50.690Z,101263.28
2018-02-20T18:54:19.844Z,101258.58
2018-02-20T18:56:48.243Z,101256.44
2018-02-20T18:59:16.621Z,101252.69
2018-02-20T19:01:45.034Z,101264.13
2018-02-20T19:04:14.193Z,101263.19
2018-02-20T19:06:42.602Z,101271.83
2018-02-20T19:09:11.783Z,101268.14
2018-02-20T19:11:40.156Z,101272.13
2018-02-20T19:14:08.558Z,101274.91
2018-02-20T19:16:37.744Z,101280.56
2018-02-20T19:19:06.108Z,101282.21
2018-02-20T19:21:34.545Z,101285.19
2018-02-20T19:24:02.910Z,101279.48
2018-02-20T19:26:31.338Z,101287.05
2018-02-20T19:28:59.750Z,101283.02
2018-02-20T19:31:28.922Z,101281.62
2018-02-20T19:33:57.317Z,101277.17
2018-02-20T19:36:26.466Z,101276.53
2018-02-20T19:38:55.039Z,101275.19
2018-02-20T19:41:23.464Z,101275.69
2018-02-20T19:43:51.848Z,101276.77
2018-02-20T19:46:20.213Z,101288.48
2018-02-20T19:48:48.745Z,101287.12
2018-02-20T19:51:17.106Z,101290.69
2018-02-20T19:53:45.496Z,101294.86
2018-02-20T19:56:13.854Z,101289.80
2018-02-20T19:58:43.011Z,101292.05
2018-02-20T20:01:11.400Z,101303.96
2018-02-20T20:03:39.781Z,101291.48
2018-02-20T20:06:08.180Z,101291.91
2018-02-20T20:08:36.562Z,101296.55
2018-02-20T20:11:05.799Z,101299.49
2018-02-20T20:13:34.171Z,101301.24
2018-02-20T20:16:02.548Z,101296.91
2018-02-20T20:18:30.957Z,101302.88
2018-02-20T20:20:59.376Z,101302.44
2018-02-20T20:23:28.546Z,101303.98
2018-02-20T20:25:56.943Z,101306.17
2018-02-20T20:28:25.340Z,101304.00
2018-02-20T20:30:53.765Z,101307.75
2018-02-20T20:33:22.196Z,101306.92
2018-02-20T20:35:51.375Z,101315.55
2018-02-20T20:38:19.800Z,101310.17
2018-02-20T20:40:48.180Z,101309.47
2018-02-20T20:43:16.552Z,101312.97
2018-02-20T20:45:44.971Z,101319.48
2018-02-20T20:48:13.341Z,101315.84
2018-02-20T20:50:41.738Z,101322.60
2018-02-20T20:53:10.121Z,101321.93
2018-02-20T20:55:39.387Z,101324.81
2018-02-20T20:58:07.788Z,101331.14
2018-02-20T21:00:36.155Z,101336.77
2018-02-20T21:03:04.557Z,101329.94
2018-02-20T21:05:32.960Z,101332.27
2018-02-20T21:08:02.099Z,101331.98
2018-02-20T21:10:30.621Z,101338.73
2018-02-20T21:12:59.818Z,101336.64
2018-02-20T21:15:28.221Z,101337.19
2018-02-20T21:17:56.607Z,101339.02
2018-02-20T21:20:25.020Z,101333.69
2018-02-20T21:22:53.470Z,101335.76
2018-02-20T21:25:22.636Z,101338.05
2018-02-20T21:27:51.022Z,101340.17
2018-02-20T21:30:20.206Z,101337.38
2018-02-20T21:32:48.650Z,101340.36
2018-02-20T21:35:17.011Z,101345.69
2018-02-20T21:37:45.420Z,101345.14
2018-02-20T21:40:13.842Z,101346.06
2018-02-20T21:42:42.983Z,101351.45
2018-02-20T21:45:11.399Z,101345.27
2018-02-20T21:47:39.791Z,101345.43
2018-02-20T21:50:08.941Z,101352.47
2018-02-20T21:52:37.338Z,101355.02
2018-02-20T21:55:05.866Z,101352.13
2018-02-20T21:57:34.250Z,101361.53
2018-02-20T22:00:02.670Z,101367.99
2018-02-20T22:02:31.065Z,101364.91
2018-02-20T22:04:59.443Z,101371.91
2018-02-20T22:07:27.859Z,101368.50
2018-02-20T22:09:56.249Z,101366.33
2018-02-20T22:12:24.733Z,101364.38
2018-02-20T22:14:53.127Z,101364.00
2018-02-20T22:17:21.534Z,101368.34
2018-02-20T22:19:49.945Z,101370.53
2018-02-20T22:22:18.333Z,101367.59
2018-02-20T22:24:46.704Z,101373.13
2018-02-20T22:27:15.912Z,101368.43
2018-02-20T22:29:44.297Z,101373.06
2018-02-20T22:32:12.700Z,101377.62
2018-02-20T22:34:41.090Z,101379.47
2018-02-20T22:37:09.494Z,101381.89
2018-02-20T22:39:37.892Z,101380.52
2018-02-20T22:42:07.133Z,101380.80
2018-02-20T22:44:35.616Z,101380.92
2018-02-20T22:47:04.050Z,101381.42
2018-02-20T22:49:33.206Z,101387.19
2018-02-20T22:52:01.591Z,101387.94
2018-02-20T22:54:29.990Z,101394.66
2018-02-20T22:56:58.379Z,101391.66
2018-02-20T22:59:27.608Z,101392.91
2018-02-20T23:01:56.015Z,101395.13
2018-02-20T23:04:24.458Z,101401.45
2018-02-20T23:06:52.864Z,101395.42
2018-02-20T23:09:21.332Z,101399.20
2018-02-20T23:11:49.703Z,101395.47
2018-02-20T23:14:18.075Z,101403.94
2018-02-20T23:16:46.710Z,101404.36
2018-02-20T23:19:15.089Z,101405.54
2018-02-20T23:21:43.481Z,101411.55
2018-02-20T23:24:11.922Z,101420.76
2018-02-20T23:26:40.341Z,101415.36
2018-02-20T23:29:08.776Z,101420.84
2018-02-20T23:31:37.184Z,101427.41
2018-02-20T23:34:05.566Z,101419.92
2018-02-20T23:36:33.980Z,101421.25
2018-02-20T23:39:02.517Z,101422.56
2018-02-20T23:41:30.945Z,101431.34
2018-02-20T23:43:59.344Z,101432.94
2018-02-20T23:46:27.768Z,101432.30
2018-02-20T23:48:56.151Z,101433.30
2018-02-20T23:51:29.980Z,101442.42
2018-02-20T23:53:59.149Z,101445.28
2018-02-20T23:56:27.519Z,101439.69
2018-02-20T23:58:55.936Z,101430.91
